sensor_id;sensor_type;location;lat;lon;timestamp;temperature;humidity
39601;DHT22;25297;44.758;11.310;2023-04-01T00:00:30;15.10;92.50
39601;DHT22;25297;44.758;11.310;2023-04-01T00:02:56;15.00;92.70
39601;DHT22;25297;44.758;11.310;2023-04-01T00:05:22;14.90;92.00
39601;DHT22;25297;44.758;11.310;2023-04-01T00:07:50;14.80;92.00
39601;DHT22;25297;44.758;11.310;2023-04-01T00:10:16;14.60;92.00
39601;DHT22;25297;44.758;11.310;2023-04-01T00:12:42;14.60;92.40
39601;DHT22;25297;44.758;11.310;2023-04-01T00:15:11;14.50;92.80
39601;DHT22;25297;44.758;11.310;2023-04-01T00:17:37;14.50;93.00
39601;DHT22;25297;44.758;11.310;2023-04-01T00:20:04;14.50;93.20
39601;DHT22;25297;44.758;11.310;2023-04-01T00:22:30;14.40;93.40
39601;DHT22;25297;44.758;11.310;2023-04-01T00:24:56;14.50;93.70
39601;DHT22;25297;44.758;11.310;2023-04-01T00:27:21;14.40;93.80
39601;DHT22;25297;44.758;11.310;2023-04-01T00:29:47;14.40;94.10
39601;DHT22;25297;44.758;11.310;2023-04-01T00:32:15;14.40;94.20
39601;DHT22;25297;44.758;11.310;2023-04-01T00:34:41;14.40;94.30
39601;DHT22;25297;44.758;11.310;2023-04-01T00:37:07;14.40;94.50
39601;DHT22;25297;44.758;11.310;2023-04-01T00:39:34;14.40;94.60
39601;DHT22;25297;44.758;11.310;2023-04-01T00:42:01;14.30;94.70
39601;DHT22;25297;44.758;11.310;2023-04-01T00:44:32;14.30;94.90
39601;DHT22;25297;44.758;11.310;2023-04-01T00:46:59;14.30;95.00
39601;DHT22;25297;44.758;11.310;2023-04-01T00:49:31;14.40;94.90
39601;DHT22;25297;44.758;11.310;2023-04-01T00:52:00;14.30;95.00
39601;DHT22;25297;44.758;11.310;2023-04-01T00:54:27;14.40;95.20
39601;DHT22;25297;44.758;11.310;2023-04-01T00:57:07;14.40;95.20
39601;DHT22;25297;44.758;11.310;2023-04-01T00:59:39;14.40;95.40
39601;DHT22;25297;44.758;11.310;2023-04-01T01:02:07;14.40;95.40
39601;DHT22;25297;44.758;11.310;2023-04-01T01:04:34;14.40;95.30
39601;DHT22;25297;44.758;11.310;2023-04-01T01:13:04;14.30;94.70
39601;DHT22;25297;44.758;11.310;2023-04-01T01:21:33;14.10;94.50
39601;DHT22;25297;44.758;11.310;2023-04-01T01:24:31;14.00;94.70
39601;DHT22;25297;44.758;11.310;2023-04-01T01:27:20;14.00;95.00
39601;DHT22;25297;44.758;11.310;2023-04-01T01:32:38;14.00;95.30
39601;DHT22;25297;44.758;11.310;2023-04-01T01:37:46;13.90;95.50
39601;DHT22;25297;44.758;11.310;2023-04-01T01:40:13;13.90;95.60
39601;DHT22;25297;44.758;11.310;2023-04-01T01:42:43;13.90;95.70
39601;DHT22;25297;44.758;11.310;2023-04-01T01:45:12;13.90;95.60
39601;DHT22;25297;44.758;11.310;2023-04-01T01:47:40;13.90;95.50
39601;DHT22;25297;44.758;11.310;2023-04-01T01:50:08;13.80;95.40
39601;DHT22;25297;44.758;11.310;2023-04-01T01:52:34;13.80;95.40
39601;DHT22;25297;44.758;11.310;2023-04-01T01:55:00;13.80;95.40
39601;DHT22;25297;44.758;11.310;2023-04-01T01:57:32;13.80;95.40
39601;DHT22;25297;44.758;11.310;2023-04-01T02:00:05;13.80;95.50
39601;DHT22;25297;44.758;11.310;2023-04-01T02:02:39;13.80;95.60
39601;DHT22;25297;44.758;11.310;2023-04-01T02:05:08;13.80;95.70
39601;DHT22;25297;44.758;11.310;2023-04-01T02:07:37;13.80;95.70
39601;DHT22;25297;44.758;11.310;2023-04-01T02:10:05;13.80;95.50
39601;DHT22;25297;44.758;11.310;2023-04-01T02:12:32;13.70;95.30
39601;DHT22;25297;44.758;11.310;2023-04-01T02:15:01;13.70;95.20
39601;DHT22;25297;44.758;11.310;2023-04-01T02:17:29;13.70;95.40
39601;DHT22;25297;44.758;11.310;2023-04-01T02:20:03;13.60;95.50
39601;DHT22;25297;44.758;11.310;2023-04-01T02:22:33;13.60;95.60
39601;DHT22;25297;44.758;11.310;2023-04-01T02:25:05;13.60;95.70
39601;DHT22;25297;44.758;11.310;2023-04-01T02:27:31;13.50;95.80
39601;DHT22;25297;44.758;11.310;2023-04-01T02:29:58;13.50;95.90
39601;DHT22;25297;44.758;11.310;2023-04-01T02:32:24;13.50;95.90
39601;DHT22;25297;44.758;11.310;2023-04-01T02:34:51;13.50;95.80
39601;DHT22;25297;44.758;11.310;2023-04-01T02:37:17;13.40;95.80
39601;DHT22;25297;44.758;11.310;2023-04-01T02:39:43;13.40;95.70
39601;DHT22;25297;44.758;11.310;2023-04-01T02:42:09;13.40;95.70
39601;DHT22;25297;44.758;11.310;2023-04-01T02:44:35;13.40;95.70
39601;DHT22;25297;44.758;11.310;2023-04-01T02:47:01;13.30;95.60
39601;DHT22;25297;44.758;11.310;2023-04-01T02:49:27;13.30;95.60
39601;DHT22;25297;44.758;11.310;2023-04-01T02:51:52;13.30;95.60
39601;DHT22;25297;44.758;11.310;2023-04-01T02:54:19;13.30;95.50
39601;DHT22;25297;44.758;11.310;2023-04-01T02:56:44;13.30;95.40
39601;DHT22;25297;44.758;11.310;2023-04-01T02:59:11;13.20;95.40
39601;DHT22;25297;44.758;11.310;2023-04-01T03:01:36;13.20;95.40
39601;DHT22;25297;44.758;11.310;2023-04-01T03:04:02;13.20;95.30
39601;DHT22;25297;44.758;11.310;2023-04-01T03:06:30;13.10;95.30
39601;DHT22;25297;44.758;11.310;2023-04-01T03:08:55;13.10;95.50
39601;DHT22;25297;44.758;11.310;2023-04-01T03:11:21;13.10;95.70
39601;DHT22;25297;44.758;11.310;2023-04-01T03:13:47;13.10;95.80
39601;DHT22;25297;44.758;11.310;2023-04-01T03:16:14;13.10;95.80
39601;DHT22;25297;44.758;11.310;2023-04-01T03:18:40;13.20;95.70
39601;DHT22;25297;44.758;11.310;2023-04-01T03:21:16;13.20;95.60
39601;DHT22;25297;44.758;11.310;2023-04-01T03:23:42;13.20;95.70
39601;DHT22;25297;44.758;11.310;2023-04-01T03:26:07;13.20;95.70
39601;DHT22;25297;44.758;11.310;2023-04-01T03:28:33;13.30;95.80
39601;DHT22;25297;44.758;11.310;2023-04-01T03:30:59;13.30;95.60
39601;DHT22;25297;44.758;11.310;2023-04-01T03:33:25;13.20;95.50
39601;DHT22;25297;44.758;11.310;2023-04-01T03:35:50;13.20;95.50
39601;DHT22;25297;44.758;11.310;2023-04-01T03:38:17;13.20;95.50
39601;DHT22;25297;44.758;11.310;2023-04-01T03:40:44;13.20;95.60
39601;DHT22;25297;44.758;11.310;2023-04-01T03:43:10;13.20;95.70
39601;DHT22;25297;44.758;11.310;2023-04-01T03:45:43;13.10;95.60
39601;DHT22;25297;44.758;11.310;2023-04-01T03:48:09;13.10;95.60
39601;DHT22;25297;44.758;11.310;2023-04-01T03:50:35;13.00;95.60
39601;DHT22;25297;44.758;11.310;2023-04-01T03:53:00;13.00;95.70
39601;DHT22;25297;44.758;11.310;2023-04-01T03:55:26;12.90;95.60
39601;DHT22;25297;44.758;11.310;2023-04-01T03:57:52;12.90;95.40
39601;DHT22;25297;44.758;11.310;2023-04-01T04:00:17;12.90;95.40
39601;DHT22;25297;44.758;11.310;2023-04-01T04:02:43;12.90;95.50
39601;DHT22;25297;44.758;11.310;2023-04-01T04:05:09;12.80;95.50
39601;DHT22;25297;44.758;11.310;2023-04-01T04:07:35;12.80;95.80
39601;DHT22;25297;44.758;11.310;2023-04-01T04:10:01;12.70;95.90
39601;DHT22;25297;44.758;11.310;2023-04-01T04:12:27;12.80;96.00
39601;DHT22;25297;44.758;11.310;2023-04-01T04:14:53;12.80;96.00
39601;DHT22;25297;44.758;11.310;2023-04-01T04:17:18;12.70;96.00
39601;DHT22;25297;44.758;11.310;2023-04-01T04:19:44;12.70;95.90
39601;DHT22;25297;44.758;11.310;2023-04-01T04:22:10;12.70;95.80
39601;DHT22;25297;44.758;11.310;2023-04-01T04:24:35;12.70;95.90
39601;DHT22;25297;44.758;11.310;2023-04-01T04:27:02;12.70;96.10
39601;DHT22;25297;44.758;11.310;2023-04-01T04:29:28;12.80;96.20
39601;DHT22;25297;44.758;11.310;2023-04-01T04:31:53;12.80;96.50
39601;DHT22;25297;44.758;11.310;2023-04-01T04:34:19;12.80;96.60
39601;DHT22;25297;44.758;11.310;2023-04-01T04:36:45;12.90;96.80
39601;DHT22;25297;44.758;11.310;2023-04-01T04:39:10;12.90;96.80
39601;DHT22;25297;44.758;11.310;2023-04-01T04:41:39;12.90;96.70
39601;DHT22;25297;44.758;11.310;2023-04-01T04:44:05;12.90;96.50
39601;DHT22;25297;44.758;11.310;2023-04-01T04:46:30;12.90;96.30
39601;DHT22;25297;44.758;11.310;2023-04-01T04:48:56;13.00;96.30
39601;DHT22;25297;44.758;11.310;2023-04-01T04:51:22;13.00;96.20
39601;DHT22;25297;44.758;11.310;2023-04-01T04:53:48;13.00;96.10
39601;DHT22;25297;44.758;11.310;2023-04-01T04:56:18;12.90;96.00
39601;DHT22;25297;44.758;11.310;2023-04-01T04:58:45;12.80;95.90
39601;DHT22;25297;44.758;11.310;2023-04-01T05:01:13;12.80;95.80
39601;DHT22;25297;44.758;11.310;2023-04-01T05:03:39;12.80;95.60
39601;DHT22;25297;44.758;11.310;2023-04-01T05:06:06;12.80;95.60
39601;DHT22;25297;44.758;11.310;2023-04-01T05:08:33;12.70;95.70
39601;DHT22;25297;44.758;11.310;2023-04-01T05:10:59;12.70;95.80
39601;DHT22;25297;44.758;11.310;2023-04-01T05:13:25;12.60;95.90
39601;DHT22;25297;44.758;11.310;2023-04-01T05:15:51;12.60;96.00
39601;DHT22;25297;44.758;11.310;2023-04-01T05:18:17;12.60;96.00
39601;DHT22;25297;44.758;11.310;2023-04-01T05:20:50;12.60;96.10
39601;DHT22;25297;44.758;11.310;2023-04-01T05:23:17;12.50;96.30
39601;DHT22;25297;44.758;11.310;2023-04-01T05:25:43;12.50;96.40
39601;DHT22;25297;44.758;11.310;2023-04-01T05:28:10;12.50;96.50
39601;DHT22;25297;44.758;11.310;2023-04-01T05:30:36;12.50;96.60
39601;DHT22;25297;44.758;11.310;2023-04-01T05:33:02;12.50;96.70
39601;DHT22;25297;44.758;11.310;2023-04-01T05:35:28;12.50;96.70
39601;DHT22;25297;44.758;11.310;2023-04-01T05:37:54;12.50;96.80
39601;DHT22;25297;44.758;11.310;2023-04-01T05:40:19;12.60;96.90
39601;DHT22;25297;44.758;11.310;2023-04-01T05:42:45;12.60;97.10
39601;DHT22;25297;44.758;11.310;2023-04-01T05:45:11;12.60;97.20
39601;DHT22;25297;44.758;11.310;2023-04-01T05:47:37;12.60;97.40
39601;DHT22;25297;44.758;11.310;2023-04-01T05:50:02;12.70;97.50
39601;DHT22;25297;44.758;11.310;2023-04-01T05:52:28;12.70;97.60
39601;DHT22;25297;44.758;11.310;2023-04-01T05:54:54;12.80;97.60
39601;DHT22;25297;44.758;11.310;2023-04-01T05:57:19;12.70;97.70
39601;DHT22;25297;44.758;11.310;2023-04-01T05:59:45;12.80;97.70
39601;DHT22;25297;44.758;11.310;2023-04-01T06:02:11;12.80;97.50
39601;DHT22;25297;44.758;11.310;2023-04-01T06:04:39;12.80;97.50
39601;DHT22;25297;44.758;11.310;2023-04-01T06:07:15;12.80;97.50
39601;DHT22;25297;44.758;11.310;2023-04-01T06:09:42;12.80;97.50
39601;DHT22;25297;44.758;11.310;2023-04-01T06:12:20;12.90;97.60
39601;DHT22;25297;44.758;11.310;2023-04-01T06:15:11;12.90;97.60
39601;DHT22;25297;44.758;11.310;2023-04-01T06:20:53;13.00;97.90
39601;DHT22;25297;44.758;11.310;2023-04-01T06:23:45;13.10;98.10
39601;DHT22;25297;44.758;11.310;2023-04-01T06:43:18;13.50;98.60
39601;DHT22;25297;44.758;11.310;2023-04-01T06:49:11;13.70;98.60
39601;DHT22;25297;44.758;11.310;2023-04-01T06:52:09;13.80;98.50
39601;DHT22;25297;44.758;11.310;2023-04-01T06:54:48;13.90;98.50
39601;DHT22;25297;44.758;11.310;2023-04-01T06:57:38;14.00;98.40
39601;DHT22;25297;44.758;11.310;2023-04-01T07:00:20;14.00;98.00
39601;DHT22;25297;44.758;11.310;2023-04-01T07:03:17;14.10;97.80
39601;DHT22;25297;44.758;11.310;2023-04-01T07:05:45;14.20;97.60
39601;DHT22;25297;44.758;11.310;2023-04-01T07:08:15;14.40;97.50
39601;DHT22;25297;44.758;11.310;2023-04-01T07:11:02;14.40;97.40
39601;DHT22;25297;44.758;11.310;2023-04-01T07:13:49;14.50;96.90
39601;DHT22;25297;44.758;11.310;2023-04-01T07:16:28;14.60;96.80
39601;DHT22;25297;44.758;11.310;2023-04-01T07:22:04;14.80;96.40
39601;DHT22;25297;44.758;11.310;2023-04-01T07:24:40;14.90;96.00
39601;DHT22;25297;44.758;11.310;2023-04-01T07:27:13;15.00;95.70
39601;DHT22;25297;44.758;11.310;2023-04-01T07:29:39;15.00;96.20
39601;DHT22;25297;44.758;11.310;2023-04-01T07:32:15;15.10;95.90
39601;DHT22;25297;44.758;11.310;2023-04-01T07:34:50;15.20;95.90
39601;DHT22;25297;44.758;11.310;2023-04-01T07:37:25;15.30;95.60
39601;DHT22;25297;44.758;11.310;2023-04-01T07:45:35;15.50;94.80
39601;DHT22;25297;44.758;11.310;2023-04-01T08:01:10;15.90;93.00
39601;DHT22;25297;44.758;11.310;2023-04-01T08:09:21;16.10;92.10
39601;DHT22;25297;44.758;11.310;2023-04-01T08:12:00;16.20;92.20
39601;DHT22;25297;44.758;11.310;2023-04-01T08:14:44;16.30;91.40
39601;DHT22;25297;44.758;11.310;2023-04-01T08:17:40;16.30;90.60
39601;DHT22;25297;44.758;11.310;2023-04-01T08:25:39;16.50;88.20
39601;DHT22;25297;44.758;11.310;2023-04-01T08:30:45;16.60;84.90
39601;DHT22;25297;44.758;11.310;2023-04-01T08:33:24;16.60;84.20
39601;DHT22;25297;44.758;11.310;2023-04-01T08:36:28;16.70;85.10
39601;DHT22;25297;44.758;11.310;2023-04-01T08:39:04;16.70;83.20
39601;DHT22;25297;44.758;11.310;2023-04-01T08:41:41;16.80;82.80
39601;DHT22;25297;44.758;11.310;2023-04-01T08:44:34;16.90;82.30
39601;DHT22;25297;44.758;11.310;2023-04-01T08:47:16;16.90;81.10
39601;DHT22;25297;44.758;11.310;2023-04-01T08:58:55;17.10;80.10
39601;DHT22;25297;44.758;11.310;2023-04-01T09:13:16;17.40;79.60
39601;DHT22;25297;44.758;11.310;2023-04-01T09:16:05;17.50;79.10
39601;DHT22;25297;44.758;11.310;2023-04-01T09:18:57;17.60;79.20
39601;DHT22;25297;44.758;11.310;2023-04-01T09:24:26;17.60;77.80
39601;DHT22;25297;44.758;11.310;2023-04-01T09:27:01;17.70;77.90
39601;DHT22;25297;44.758;11.310;2023-04-01T09:29:51;17.70;77.40
39601;DHT22;25297;44.758;11.310;2023-04-01T09:35:30;17.80;77.30
39601;DHT22;25297;44.758;11.310;2023-04-01T09:43:28;18.00;77.00
39601;DHT22;25297;44.758;11.310;2023-04-01T09:46:10;18.10;76.40
39601;DHT22;25297;44.758;11.310;2023-04-01T09:51:52;18.20;76.30
39601;DHT22;25297;44.758;11.310;2023-04-01T09:57:41;18.30;76.20
39601;DHT22;25297;44.758;11.310;2023-04-01T10:40:18;19.00;67.80
39601;DHT22;25297;44.758;11.310;2023-04-01T10:51:38;19.20;66.90
39601;DHT22;25297;44.758;11.310;2023-04-01T10:55:04;19.30;65.90
39601;DHT22;25297;44.758;11.310;2023-04-01T11:14:39;19.60;64.90
39601;DHT22;25297;44.758;11.310;2023-04-01T11:17:27;19.60;65.60
39601;DHT22;25297;44.758;11.310;2023-04-01T11:26:07;19.80;66.50
39601;DHT22;25297;44.758;11.310;2023-04-01T11:37:37;20.00;63.60
39601;DHT22;25297;44.758;11.310;2023-04-01T11:42:57;20.10;62.30
39601;DHT22;25297;44.758;11.310;2023-04-01T11:45:43;20.20;62.70
39601;DHT22;25297;44.758;11.310;2023-04-01T11:48:35;20.20;61.70
39601;DHT22;25297;44.758;11.310;2023-04-01T11:57:12;20.30;60.60
39601;DHT22;25297;44.758;11.310;2023-04-01T12:02:39;20.40;60.90
39601;DHT22;25297;44.758;11.310;2023-04-01T12:19:15;20.70;60.70
39601;DHT22;25297;44.758;11.310;2023-04-01T12:27:20;20.80;59.20
39601;DHT22;25297;44.758;11.310;2023-04-01T12:36:08;20.90;58.60
39601;DHT22;25297;44.758;11.310;2023-04-01T12:55:13;21.20;57.50
39601;DHT22;25297;44.758;11.310;2023-04-01T13:00:52;21.30;56.70
39601;DHT22;25297;44.758;11.310;2023-04-01T13:06:28;21.30;56.20
39601;DHT22;25297;44.758;11.310;2023-04-01T13:17:20;21.30;56.60
39601;DHT22;25297;44.758;11.310;2023-04-01T13:28:15;21.50;57.80
39601;DHT22;25297;44.758;11.310;2023-04-01T13:31:08;21.60;57.60
39601;DHT22;25297;44.758;11.310;2023-04-01T13:37:04;21.60;56.40
39601;DHT22;25297;44.758;11.310;2023-04-01T13:44:45;21.70;56.50
39601;DHT22;25297;44.758;11.310;2023-04-01T14:03:27;21.90;56.60
39601;DHT22;25297;44.758;11.310;2023-04-01T14:33:23;21.90;53.90
39601;DHT22;25297;44.758;11.310;2023-04-01T14:50:30;21.90;53.90
39601;DHT22;25297;44.758;11.310;2023-04-01T14:52:59;21.90;54.60
39601;DHT22;25297;44.758;11.310;2023-04-01T14:55:34;21.90;54.60
39601;DHT22;25297;44.758;11.310;2023-04-01T14:58:13;21.90;54.30
39601;DHT22;25297;44.758;11.310;2023-04-01T15:00:57;21.90;54.40
39601;DHT22;25297;44.758;11.310;2023-04-01T15:04:19;21.90;53.40
39601;DHT22;25297;44.758;11.310;2023-04-01T15:36:54;21.80;46.40
39601;DHT22;25297;44.758;11.310;2023-04-01T15:42:36;21.80;47.60
39601;DHT22;25297;44.758;11.310;2023-04-01T15:47:32;21.70;45.10
39601;DHT22;25297;44.758;11.310;2023-04-01T15:55:35;21.70;46.30
39601;DHT22;25297;44.758;11.310;2023-04-01T16:00:44;21.60;45.10
39601;DHT22;25297;44.758;11.310;2023-04-01T16:06:14;21.60;45.50
39601;DHT22;25297;44.758;11.310;2023-04-01T16:20:14;21.60;46.40
39601;DHT22;25297;44.758;11.310;2023-04-01T16:25:31;21.60;45.50
39601;DHT22;25297;44.758;11.310;2023-04-01T16:28:21;21.60;45.30
39601;DHT22;25297;44.758;11.310;2023-04-01T16:31:13;21.60;45.10
39601;DHT22;25297;44.758;11.310;2023-04-01T16:36:48;21.60;45.70
39601;DHT22;25297;44.758;11.310;2023-04-01T16:39:40;21.60;44.60
39601;DHT22;25297;44.758;11.310;2023-04-01T16:50:22;21.60;45.80
39601;DHT22;25297;44.758;11.310;2023-04-01T16:53:02;21.60;46.40
39601;DHT22;25297;44.758;11.310;2023-04-01T16:58:27;21.60;46.40
39601;DHT22;25297;44.758;11.310;2023-04-01T17:01:03;21.60;46.30
39601;DHT22;25297;44.758;11.310;2023-04-01T17:03:33;21.50;46.00
39601;DHT22;25297;44.758;11.310;2023-04-01T17:06:26;21.50;45.70
39601;DHT22;25297;44.758;11.310;2023-04-01T17:12:07;21.50;46.20
39601;DHT22;25297;44.758;11.310;2023-04-01T17:23:30;21.40;47.40
39601;DHT22;25297;44.758;11.310;2023-04-01T17:29:55;21.30;49.30
39601;DHT22;25297;44.758;11.310;2023-04-01T17:43:10;21.10;50.20
39601;DHT22;25297;44.758;11.310;2023-04-01T17:45:55;21.00;51.50
39601;DHT22;25297;44.758;11.310;2023-04-01T17:48:24;20.90;52.60
39601;DHT22;25297;44.758;11.310;2023-04-01T17:51:19;20.80;52.90
39601;DHT22;25297;44.758;11.310;2023-04-01T17:54:06;20.70;53.60
39601;DHT22;25297;44.758;11.310;2023-04-01T17:59:36;20.60;54.00
39601;DHT22;25297;44.758;11.310;2023-04-01T18:07:43;20.30;54.80
39601;DHT22;25297;44.758;11.310;2023-04-01T18:10:16;20.20;55.00
39601;DHT22;25297;44.758;11.310;2023-04-01T18:15:53;20.10;55.40
39601;DHT22;25297;44.758;11.310;2023-04-01T18:27:04;19.70;56.00
39601;DHT22;25297;44.758;11.310;2023-04-01T18:32:35;19.70;56.30
39601;DHT22;25297;44.758;11.310;2023-04-01T18:38:13;19.50;56.40
39601;DHT22;25297;44.758;11.310;2023-04-01T18:40:53;19.50;56.50
39601;DHT22;25297;44.758;11.310;2023-04-01T18:46:41;19.40;56.90
39601;DHT22;25297;44.758;11.310;2023-04-01T18:57:55;19.20;57.60
39601;DHT22;25297;44.758;11.310;2023-04-01T19:00:36;19.20;57.70
39601;DHT22;25297;44.758;11.310;2023-04-01T19:03:28;19.20;57.90
39601;DHT22;25297;44.758;11.310;2023-04-01T19:06:00;19.10;58.00
39601;DHT22;25297;44.758;11.310;2023-04-01T19:08:40;19.10;57.90
39601;DHT22;25297;44.758;11.310;2023-04-01T19:11:34;19.10;58.00
39601;DHT22;25297;44.758;11.310;2023-04-01T19:17:32;18.90;58.20
39601;DHT22;25297;44.758;11.310;2023-04-01T19:20:17;18.90;58.30
39601;DHT22;25297;44.758;11.310;2023-04-01T19:23:07;18.80;58.40
39601;DHT22;25297;44.758;11.310;2023-04-01T19:29:22;18.70;58.90
39601;DHT22;25297;44.758;11.310;2023-04-01T19:37:50;18.60;59.00
39601;DHT22;25297;44.758;11.310;2023-04-01T19:51:28;18.50;59.30
39601;DHT22;25297;44.758;11.310;2023-04-01T19:54:21;18.40;59.90
39601;DHT22;25297;44.758;11.310;2023-04-01T19:57:12;18.40;59.50
39601;DHT22;25297;44.758;11.310;2023-04-01T20:11:26;18.30;60.00
39601;DHT22;25297;44.758;11.310;2023-04-01T20:14:18;18.20;60.10
39601;DHT22;25297;44.758;11.310;2023-04-01T20:19:26;18.20;60.50
39601;DHT22;25297;44.758;11.310;2023-04-01T20:21:57;18.20;60.50
39601;DHT22;25297;44.758;11.310;2023-04-01T20:24:24;18.10;60.60
39601;DHT22;25297;44.758;11.310;2023-04-01T20:27:21;18.10;60.60
39601;DHT22;25297;44.758;11.310;2023-04-01T20:30:18;18.10;60.80
39601;DHT22;25297;44.758;11.310;2023-04-01T20:41:19;18.00;61.20
39601;DHT22;25297;44.758;11.310;2023-04-01T20:43:55;18.00;61.50
39601;DHT22;25297;44.758;11.310;2023-04-01T20:49:02;18.00;61.40
39601;DHT22;25297;44.758;11.310;2023-04-01T21:03:45;17.90;61.80
39601;DHT22;25297;44.758;11.310;2023-04-01T21:09:15;17.90;62.00
39601;DHT22;25297;44.758;11.310;2023-04-01T21:31:00;17.70;62.60
39601;DHT22;25297;44.758;11.310;2023-04-01T21:58:32;17.10;64.60
39601;DHT22;25297;44.758;11.310;2023-04-01T22:11:30;16.70;66.50
39601;DHT22;25297;44.758;11.310;2023-04-01T22:22:48;16.40;67.30
39601;DHT22;25297;44.758;11.310;2023-04-01T22:25:23;16.30;67.80
39601;DHT22;25297;44.758;11.310;2023-04-01T22:27:55;16.40;67.90
39601;DHT22;25297;44.758;11.310;2023-04-01T22:30:31;16.40;67.40
39601;DHT22;25297;44.758;11.310;2023-04-01T22:33:19;16.40;67.60
39601;DHT22;25297;44.758;11.310;2023-04-01T22:36:02;16.40;67.70
39601;DHT22;25297;44.758;11.310;2023-04-01T22:44:31;16.50;67.00
39601;DHT22;25297;44.758;11.310;2023-04-01T22:47:04;16.40;66.70
39601;DHT22;25297;44.758;11.310;2023-04-01T22:49:50;16.30;66.60
39601;DHT22;25297;44.758;11.310;2023-04-01T22:52:40;16.20;67.20
39601;DHT22;25297;44.758;11.310;2023-04-01T22:55:28;16.20;67.30
39601;DHT22;25297;44.758;11.310;2023-04-01T22:58:02;16.10;68.60
39601;DHT22;25297;44.758;11.310;2023-04-01T23:00:40;16.20;68.50
39601;DHT22;25297;44.758;11.310;2023-04-01T23:03:15;16.10;67.90
39601;DHT22;25297;44.758;11.310;2023-04-01T23:05:55;16.00;68.10
39601;DHT22;25297;44.758;11.310;2023-04-01T23:11:51;16.00;69.20
39601;DHT22;25297;44.758;11.310;2023-04-01T23:17:38;15.80;70.00
39601;DHT22;25297;44.758;11.310;2023-04-01T23:23:33;15.60;69.80
39601;DHT22;25297;44.758;11.310;2023-04-01T23:38:33;15.40;71.50
39601;DHT22;25297;44.758;11.310;2023-04-01T23:41:00;15.40;71.70
39601;DHT22;25297;44.758;11.310;2023-04-01T23:43:29;15.30;71.90
39601;DHT22;25297;44.758;11.310;2023-04-01T23:46:02;15.30;72.10
39601;DHT22;25297;44.758;11.310;2023-04-01T23:48:35;15.40;72.40
39601;DHT22;25297;44.758;11.310;2023-04-01T23:51:01;15.40;72.20
39601;DHT22;25297;44.758;11.310;2023-04-01T23:53:33;15.40;72.50
39601;DHT22;25297;44.758;11.310;2023-04-01T23:55:59;15.40;72.40
39601;DHT22;25297;44.758;11.310;2023-04-01T23:58:49;15.40;72.70
